createdAt,value
2022-12-09T00:00:34.097Z,1.24
2022-12-09T00:03:37.406Z,1.22
2022-12-09T00:06:41.779Z,1.26
2022-12-09T00:09:44.986Z,1.25
2022-12-09T00:12:47.961Z,1.23
2022-12-09T00:15:50.912Z,1.32
2022-12-09T00:18:54.756Z,1.29
2022-12-09T00:21:59.039Z,1.31
2022-12-09T00:25:02.211Z,1.28
2022-12-09T00:28:05.369Z,1.31
2022-12-09T00:31:09.253Z,1.32
2022-12-09T00:34:14.246Z,1.30
2022-12-09T00:37:18.606Z,1.27
2022-12-09T00:40:21.813Z,1.25
2022-12-09T00:43:24.913Z,1.32
2022-12-09T00:46:28.407Z,1.34
2022-12-09T00:49:31.338Z,1.33
2022-12-09T00:52:36.659Z,1.32
2022-12-09T00:55:41.471Z,1.32
2022-12-09T00:58:44.556Z,1.22
2022-12-09T01:01:47.559Z,1.30
2022-12-09T01:04:51.676Z,1.23
2022-12-09T01:07:56.449Z,1.22
2022-12-09T01:10:59.477Z,1.21
2022-12-09T01:14:04.136Z,1.16
2022-12-09T01:17:07.560Z,1.16
2022-12-09T01:20:11.960Z,1.13
2022-12-09T01:23:16.850Z,1.07
2022-12-09T01:26:19.942Z,1.11
2022-12-09T01:29:23.584Z,1.17
2022-12-09T01:32:26.940Z,1.14
2022-12-09T01:35:30.029Z,1.19
2022-12-09T01:38:34.289Z,1.19
2022-12-09T01:41:37.267Z,1.17
2022-12-09T01:44:40.369Z,1.15
2022-12-09T01:47:43.717Z,1.07
2022-12-09T01:50:51.680Z,1.13
2022-12-09T01:53:57.201Z,1.06
2022-12-09T01:57:01.077Z,1.03
2022-12-09T02:00:07.025Z,1.02
2022-12-09T02:03:19.711Z,0.99
2022-12-09T02:06:23.371Z,0.98
2022-12-09T02:09:28.370Z,1.00
2022-12-09T02:12:39.935Z,1.03
2022-12-09T02:15:48.203Z,1.02
2022-12-09T02:19:00.382Z,0.93
2022-12-09T02:22:04.079Z,0.89
2022-12-09T02:25:16.930Z,0.86
2022-12-09T02:28:43.032Z,0.80
2022-12-09T02:32:03.651Z,0.78
2022-12-09T02:35:11.953Z,0.64
2022-12-09T02:38:22.089Z,0.58
2022-12-09T02:41:30.477Z,0.45
2022-12-09T02:44:37.177Z,0.47
2022-12-09T02:47:46.555Z,0.50
2022-12-09T02:50:54.245Z,0.42
2022-12-09T02:54:03.354Z,0.38
2022-12-09T02:57:14.052Z,0.25
2022-12-09T03:00:17.857Z,0.28
2022-12-09T03:03:21.393Z,0.26
2022-12-09T03:06:30.533Z,0.22
2022-12-09T03:09:38.479Z,0.20
2022-12-09T03:12:48.681Z,0.20
2022-12-09T03:16:00.984Z,0.16
2022-12-09T03:19:09.311Z,0.12
2022-12-09T03:22:19.046Z,0.13
2022-12-09T03:25:24.816Z,0.03
2022-12-09T03:28:34.558Z,0.02
2022-12-09T03:31:39.060Z,-0.07
2022-12-09T03:34:46.754Z,-0.17
2022-12-09T03:37:53.124Z,-0.21
2022-12-09T03:41:02.114Z,-0.33
2022-12-09T03:44:12.550Z,-0.31
2022-12-09T03:47:15.575Z,-0.41
2022-12-09T03:50:19.488Z,-0.38
2022-12-09T03:53:31.048Z,-0.34
2022-12-09T03:56:38.684Z,-0.41
2022-12-09T03:59:43.731Z,-0.44
2022-12-09T04:02:47.382Z,-0.43
2022-12-09T04:05:50.486Z,-0.42
2022-12-09T04:09:00.761Z,-0.62
2022-12-09T04:12:05.643Z,-0.66
2022-12-09T04:15:10.278Z,-0.68
2022-12-09T04:18:13.314Z,-0.57
2022-12-09T04:21:16.456Z,-0.62
2022-12-09T04:24:21.445Z,-0.68
2022-12-09T04:27:24.525Z,-0.73
2022-12-09T04:30:27.506Z,-0.71
2022-12-09T04:33:32.506Z,-0.76
2022-12-09T04:36:35.476Z,-0.75
2022-12-09T04:39:41.780Z,-0.71
2022-12-09T04:42:44.928Z,-0.71
2022-12-09T04:45:47.959Z,-0.79
2022-12-09T04:48:52.185Z,-0.76
2022-12-09T04:51:55.123Z,-0.83
2022-12-09T04:54:59.792Z,-0.89
2022-12-09T04:58:02.774Z,-0.93
2022-12-09T05:01:09.340Z,-0.93
2022-12-09T05:04:12.974Z,-0.99
2022-12-09T05:07:16.305Z,-1.06
2022-12-09T05:10:20.977Z,-1.04
2022-12-09T05:13:27.381Z,-1.05
2022-12-09T05:16:31.046Z,-1.05
2022-12-09T05:19:34.446Z,-1.14
2022-12-09T05:22:37.954Z,-1.13
2022-12-09T05:25:42.298Z,-1.21
2022-12-09T05:28:45.650Z,-1.20
2022-12-09T05:31:48.766Z,-1.31
2022-12-09T05:34:52.271Z,-1.26
2022-12-09T05:37:55.442Z,-1.21
2022-12-09T05:41:02.175Z,-1.25
2022-12-09T05:44:05.280Z,-1.19
2022-12-09T05:47:08.615Z,-1.20
2022-12-09T05:50:12.712Z,-1.16
2022-12-09T05:53:16.195Z,-1.30
2022-12-09T05:56:22.379Z,-1.37
2022-12-09T05:59:25.994Z,-1.54
2022-12-09T06:02:29.490Z,-1.64
2022-12-09T06:05:32.823Z,-1.55
2022-12-09T06:08:37.100Z,-1.41
2022-12-09T06:11:42.401Z,-1.47
2022-12-09T06:14:45.443Z,-1.36
2022-12-09T06:17:48.870Z,-1.50
2022-12-09T06:20:51.869Z,-1.55
2022-12-09T06:23:55.034Z,-1.51
2022-12-09T06:26:59.632Z,-1.40
2022-12-09T06:30:03.343Z,-1.38
2022-12-09T06:33:17.472Z,-1.42
2022-12-09T06:36:32.115Z,-1.37
2022-12-09T06:39:35.388Z,-1.41
2022-12-09T06:42:40.118Z,-1.43
2022-12-09T06:45:43.472Z,-1.36
2022-12-09T06:48:47.378Z,-1.31
2022-12-09T06:51:51.330Z,-1.40
2022-12-09T06:54:54.380Z,-1.33
2022-12-09T06:57:59.824Z,-1.36
2022-12-09T07:01:07.898Z,-1.43
2022-12-09T07:04:14.758Z,-1.28
2022-12-09T07:07:18.322Z,-1.37
2022-12-09T07:10:22.296Z,-1.38
2022-12-09T07:13:27.008Z,-1.40
2022-12-09T07:16:31.104Z,-1.35
2022-12-09T07:19:34.579Z,-1.37
2022-12-09T07:22:37.898Z,-1.46
2022-12-09T07:25:40.858Z,-1.37
2022-12-09T07:28:47.332Z,-1.37
2022-12-09T07:31:50.664Z,-1.40
2022-12-09T07:34:54.034Z,-1.35
2022-12-09T07:37:57.202Z,-1.39
2022-12-09T07:41:06.352Z,-1.37
2022-12-09T07:44:12.120Z,-1.33
2022-12-09T07:47:15.803Z,-1.32
2022-12-09T07:50:19.064Z,-1.34
2022-12-09T07:53:22.346Z,-1.31
2022-12-09T07:56:27.670Z,-1.26
2022-12-09T07:59:32.417Z,-1.26
2022-12-09T08:02:35.473Z,-1.34
2022-12-09T08:05:38.641Z,-1.27
2022-12-09T08:08:42.123Z,-1.19
2022-12-09T08:11:45.554Z,-1.16
2022-12-09T08:14:50.654Z,-1.27
2022-12-09T08:17:53.876Z,-1.27
2022-12-09T08:20:58.143Z,-1.30
2022-12-09T08:24:03.147Z,-1.32
2022-12-09T08:27:06.723Z,-1.36
2022-12-09T08:30:12.696Z,-1.32
2022-12-09T08:33:16.546Z,-1.18
2022-12-09T08:36:21.720Z,-1.21
2022-12-09T08:39:25.710Z,-1.18
2022-12-09T08:42:31.231Z,-1.15
2022-12-09T08:45:37.168Z,-1.15
2022-12-09T08:48:41.669Z,-1.16
2022-12-09T08:51:45.540Z,-1.19
2022-12-09T08:54:48.788Z,-1.16
2022-12-09T08:57:51.960Z,-1.14
2022-12-09T09:00:56.242Z,-1.01
2022-12-09T09:04:01.561Z,-0.90
2022-12-09T09:07:04.879Z,-0.80
2022-12-09T09:10:09.872Z,-0.71
2022-12-09T09:13:13.480Z,-0.70
2022-12-09T09:16:20.892Z,-0.66
2022-12-09T09:19:26.120Z,-0.51
2022-12-09T09:22:29.899Z,-0.51
2022-12-09T09:25:33.364Z,-0.46
2022-12-09T09:28:36.729Z,-0.48
2022-12-09T09:31:41.280Z,-0.37
2022-12-09T09:34:45.976Z,-0.31
2022-12-09T09:37:49.499Z,-0.21
2022-12-09T09:40:53.470Z,-0.17
2022-12-09T09:43:57.585Z,-0.15
2022-12-09T09:47:07.033Z,-0.06
2022-12-09T09:50:23.221Z,-0.09
2022-12-09T09:53:30.868Z,-0.03
2022-12-09T09:56:41.099Z,0.08
2022-12-09T10:00:05.050Z,0.13
2022-12-09T10:03:28.580Z,0.17
2022-12-09T10:06:43.281Z,0.22
2022-12-09T10:09:54.201Z,0.27
2022-12-09T10:13:12.366Z,0.37
2022-12-09T10:16:23.036Z,0.41
2022-12-09T10:19:32.789Z,0.49
2022-12-09T10:22:44.092Z,0.57
2022-12-09T10:25:51.969Z,0.72
2022-12-09T10:29:03.818Z,0.79
2022-12-09T10:32:15.547Z,0.59
2022-12-09T10:35:22.606Z,0.69
2022-12-09T10:38:26.807Z,0.66
2022-12-09T10:42:08.959Z,0.61
2022-12-09T10:45:13.506Z,0.73
2022-12-09T10:48:33.131Z,0.88
2022-12-09T10:51:39.696Z,0.94
2022-12-09T10:54:44.889Z,1.06
2022-12-09T10:57:48.000Z,1.34
2022-12-09T11:01:05.293Z,1.29
2022-12-09T11:04:14.495Z,1.38
2022-12-09T11:07:22.095Z,1.42
2022-12-09T11:10:27.986Z,1.39
2022-12-09T11:13:42.140Z,1.29
2022-12-09T11:16:45.720Z,1.26
2022-12-09T11:19:52.601Z,1.28
2022-12-09T11:23:04.452Z,1.21
2022-12-09T11:26:23.249Z,1.24
2022-12-09T11:29:26.700Z,1.19
2022-12-09T11:32:30.152Z,1.12
2022-12-09T11:35:39.929Z,1.05
2022-12-09T11:38:46.596Z,1.14
2022-12-09T11:42:14.839Z,1.17
2022-12-09T11:45:24.519Z,1.44
2022-12-09T11:48:35.030Z,1.55
2022-12-09T11:51:43.804Z,1.61
2022-12-09T11:54:54.645Z,1.61
2022-12-09T11:58:02.058Z,1.70
2022-12-09T12:01:08.481Z,1.89
2022-12-09T12:04:14.402Z,1.87
2022-12-09T12:07:25.972Z,1.91
2022-12-09T12:10:40.357Z,1.63
2022-12-09T12:13:46.544Z,1.41
2022-12-09T12:16:54.405Z,1.17
2022-12-09T12:19:58.107Z,1.13
2022-12-09T12:23:21.139Z,1.19
2022-12-09T12:26:29.956Z,1.13
2022-12-09T12:29:42.492Z,1.17
2022-12-09T12:33:46.364Z,1.03
2022-12-09T12:36:37.024Z,1.09
2022-12-09T12:39:50.008Z,0.97
2022-12-09T12:43:24.132Z,1.01
2022-12-09T12:46:43.136Z,0.94
2022-12-09T12:50:19.568Z,0.97
2022-12-09T12:53:32.969Z,0.90
2022-12-09T12:56:43.286Z,1.08
2022-12-09T12:59:54.784Z,1.17
2022-12-09T13:03:12.459Z,1.20
2022-12-09T13:06:19.751Z,1.15
2022-12-09T13:09:30.281Z,1.10
2022-12-09T13:12:56.682Z,1.11
2022-12-09T13:16:07.993Z,1.09
2022-12-09T13:19:17.651Z,1.00
2022-12-09T13:22:23.104Z,0.99
2022-12-09T13:25:40.352Z,1.01
2022-12-09T13:28:50.065Z,1.15
2022-12-09T13:32:03.172Z,1.05
2022-12-09T13:35:13.858Z,0.92
2022-12-09T13:38:33.482Z,0.99
2022-12-09T13:41:58.426Z,0.94
2022-12-09T13:45:07.594Z,0.91
2022-12-09T13:48:45.641Z,0.93
2022-12-09T13:51:52.591Z,1.00
2022-12-09T13:54:57.129Z,1.09
2022-12-09T13:58:33.533Z,0.98
2022-12-09T14:01:43.381Z,0.81
2022-12-09T14:04:56.136Z,0.88
2022-12-09T14:08:08.364Z,0.93
2022-12-09T14:11:43.773Z,0.97
2022-12-09T14:14:52.293Z,0.88
2022-12-09T14:18:01.931Z,0.76
2022-12-09T14:21:24.637Z,0.76
2022-12-09T14:24:32.495Z,0.79
2022-12-09T14:27:35.429Z,0.82
2022-12-09T14:30:50.595Z,0.84
2022-12-09T14:33:53.575Z,0.73
2022-12-09T14:37:20.481Z,0.76
2022-12-09T14:40:39.719Z,0.60
2022-12-09T14:43:54.541Z,0.57
2022-12-09T14:47:15.619Z,0.58
2022-12-09T14:50:21.881Z,0.57
2022-12-09T14:53:26.652Z,0.60
2022-12-09T14:56:33.277Z,0.54
2022-12-09T14:59:36.681Z,0.56
2022-12-09T15:02:39.714Z,0.56
2022-12-09T15:05:55.045Z,0.53
2022-12-09T15:08:59.826Z,0.45
2022-12-09T15:12:09.596Z,0.40
2022-12-09T15:15:15.723Z,0.37
2022-12-09T15:18:21.780Z,0.33
2022-12-09T15:21:29.569Z,0.33
2022-12-09T15:24:49.355Z,0.29
2022-12-09T15:28:00.038Z,0.26
2022-12-09T15:31:05.115Z,0.27
2022-12-09T15:34:15.502Z,0.26
2022-12-09T15:37:20.667Z,0.37
2022-12-09T15:40:29.107Z,0.22
2022-12-09T15:43:37.629Z,0.15
2022-12-09T15:46:43.673Z,0.12
2022-12-09T15:49:53.043Z,0.13
2022-12-09T15:52:58.282Z,0.19
2022-12-09T15:56:08.483Z,0.11
2022-12-09T15:59:18.238Z,0.07
2022-12-09T16:02:25.155Z,0.13
2022-12-09T16:05:28.160Z,0.18
2022-12-09T16:08:37.524Z,0.11
2022-12-09T16:11:42.225Z,0.06
2022-12-09T16:14:46.414Z,0.05
2022-12-09T16:17:54.150Z,0.01
2022-12-09T16:21:18.747Z,0.04
2022-12-09T16:24:22.480Z,0.07
2022-12-09T16:27:27.395Z,0.08
2022-12-09T16:30:34.539Z,0.06
2022-12-09T16:33:40.204Z,0.00
2022-12-09T16:36:54.573Z,-0.08
2022-12-09T16:39:58.317Z,-0.18
2022-12-09T16:43:21.985Z,-0.14
2022-12-09T16:46:39.703Z,-0.20
2022-12-09T16:49:45.512Z,-0.12
2022-12-09T16:52:48.581Z,-0.07
2022-12-09T16:55:53.513Z,-0.11
2022-12-09T16:58:57.294Z,-0.08
2022-12-09T17:02:01.672Z,-0.10
2022-12-09T17:05:06.138Z,-0.03
2022-12-09T17:08:09.923Z,-0.08
2022-12-09T17:11:13.908Z,-0.25
2022-12-09T17:14:17.185Z,-0.12
2022-12-09T17:17:21.583Z,-0.28
2022-12-09T17:20:24.952Z,-0.14
2022-12-09T17:23:28.005Z,-0.17
2022-12-09T17:26:30.867Z,-0.23
2022-12-09T17:29:33.814Z,-0.24
2022-12-09T17:32:38.589Z,-0.30
2022-12-09T17:35:41.435Z,-0.27
2022-12-09T17:38:44.774Z,-0.20
2022-12-09T17:41:49.603Z,-0.18
2022-12-09T17:44:52.624Z,-0.07
2022-12-09T17:47:57.133Z,-0.24
2022-12-09T17:51:00.595Z,-0.21
2022-12-09T17:54:03.531Z,-0.16
2022-12-09T17:57:06.408Z,-0.14
2022-12-09T18:00:11.086Z,-0.10
2022-12-09T18:03:39.387Z,-0.08
2022-12-09T18:06:44.193Z,-0.07
2022-12-09T18:09:52.812Z,-0.03
2022-12-09T18:12:57.303Z,0.00
2022-12-09T18:16:00.249Z,-0.06
2022-12-09T18:19:06.492Z,-0.01
2022-12-09T18:22:09.466Z,-0.10
2022-12-09T18:25:12.436Z,-0.11
2022-12-09T18:28:15.309Z,-0.18
2022-12-09T18:31:19.733Z,-0.24
2022-12-09T18:34:24.136Z,-0.20
2022-12-09T18:37:27.198Z,-0.14
2022-12-09T18:40:30.483Z,-0.14
2022-12-09T18:43:35.555Z,-0.19
2022-12-09T18:46:40.538Z,-0.18
2022-12-09T18:49:45.011Z,-0.13
2022-12-09T18:52:48.280Z,-0.13
2022-12-09T18:55:51.378Z,-0.11
2022-12-09T18:59:09.928Z,-0.14
2022-12-09T19:02:13.963Z,-0.20
2022-12-09T19:05:23.042Z,-0.25
2022-12-09T19:08:25.892Z,-0.17
2022-12-09T19:11:30.517Z,-0.17
2022-12-09T19:14:35.295Z,-0.18
2022-12-09T19:17:39.984Z,-0.26
2022-12-09T19:20:44.393Z,-0.30
2022-12-09T19:23:48.167Z,-0.30
2022-12-09T19:26:53.197Z,-0.19
2022-12-09T19:29:58.739Z,-0.22
2022-12-09T19:33:01.654Z,-0.23
2022-12-09T19:36:06.730Z,-0.18
2022-12-09T19:39:11.493Z,-0.22
2022-12-09T19:42:14.486Z,-0.24
2022-12-09T19:45:17.467Z,-0.25
2022-12-09T19:48:20.467Z,-0.21
2022-12-09T19:51:26.053Z,-0.15
2022-12-09T19:54:29.724Z,-0.14
2022-12-09T19:57:32.979Z,-0.14
2022-12-09T20:00:41.303Z,-0.18
2022-12-09T20:03:47.420Z,-0.16
2022-12-09T20:06:51.724Z,-0.05
2022-12-09T20:09:54.628Z,-0.01
2022-12-09T20:12:57.663Z,0.05
2022-12-09T20:16:04.681Z,-0.02
2022-12-09T20:19:07.817Z,0.02
2022-12-09T20:22:12.160Z,-0.06
2022-12-09T20:25:15.244Z,-0.05
2022-12-09T20:28:18.186Z,-0.02
2022-12-09T20:31:22.618Z,-0.07
2022-12-09T20:34:26.689Z,-0.06
2022-12-09T20:37:32.482Z,-0.08
2022-12-09T20:40:40.657Z,-0.10
2022-12-09T20:43:46.084Z,-0.13
2022-12-09T20:46:50.669Z,-0.08
2022-12-09T20:49:53.546Z,-0.06
2022-12-09T20:52:57.830Z,-0.01
2022-12-09T20:56:01.999Z,0.05
2022-12-09T20:59:05.213Z,0.04
2022-12-09T21:02:13.455Z,0.10
2022-12-09T21:05:16.913Z,-0.03
2022-12-09T21:08:21.274Z,-0.04
2022-12-09T21:11:26.306Z,0.02
2022-12-09T21:14:33.188Z,0.10
2022-12-09T21:17:36.143Z,-0.08
2022-12-09T21:20:44.085Z,-0.10
2022-12-09T21:23:50.215Z,-0.08
2022-12-09T21:26:55.498Z,-0.08
2022-12-09T21:29:58.738Z,-0.12
2022-12-09T21:33:02.076Z,-0.12
2022-12-09T21:36:07.315Z,-0.08
2022-12-09T21:39:14.352Z,-0.05
2022-12-09T21:42:17.257Z,-0.14
2022-12-09T21:45:20.395Z,-0.22
2022-12-09T21:48:23.245Z,-0.21
2022-12-09T21:51:27.542Z,-0.22
2022-12-09T21:54:32.106Z,-0.20
2022-12-09T21:57:35.548Z,-0.25
2022-12-09T22:00:39.014Z,-0.25
2022-12-09T22:03:42.154Z,-0.27
2022-12-09T22:06:47.131Z,-0.26
2022-12-09T22:09:51.484Z,-0.34
2022-12-09T22:12:54.729Z,-0.24
2022-12-09T22:15:57.795Z,-0.25
2022-12-09T22:19:02.333Z,-0.26
2022-12-09T22:22:09.008Z,-0.26
2022-12-09T22:25:13.863Z,-0.25
2022-12-09T22:28:16.841Z,-0.24
2022-12-09T22:31:21.616Z,-0.15
2022-12-09T22:34:24.514Z,-0.08
2022-12-09T22:37:44.011Z,-0.17
2022-12-09T22:40:48.705Z,-0.23
2022-12-09T22:43:52.366Z,-0.19
2022-12-09T22:46:55.679Z,-0.21
2022-12-09T22:49:58.561Z,-0.22
2022-12-09T22:53:01.488Z,-0.24
2022-12-09T22:56:06.953Z,-0.28
2022-12-09T22:59:10.214Z,-0.28
2022-12-09T23:02:13.725Z,-0.17
2022-12-09T23:05:17.079Z,-0.22
2022-12-09T23:08:20.160Z,-0.12
2022-12-09T23:11:28.083Z,-0.10
2022-12-09T23:14:31.310Z,-0.19
2022-12-09T23:17:35.584Z,-0.21
2022-12-09T23:20:38.848Z,-0.27
2022-12-09T23:23:42.940Z,-0.19
2022-12-09T23:26:47.455Z,-0.23
2022-12-09T23:29:50.522Z,-0.25
2022-12-09T23:32:53.687Z,-0.24
2022-12-09T23:35:56.809Z,-0.16
2022-12-09T23:39:01.329Z,-0.03
2022-12-09T23:42:05.897Z,-0.18
2022-12-09T23:45:09.954Z,-0.19
2022-12-09T23:48:13.368Z,-0.30
2022-12-09T23:51:18.514Z,-0.38
2022-12-09T23:54:21.590Z,-0.33
2022-12-09T23:57:26.116Z,-0.24
